sensor_id;sensor_type;location;lat;lon;timestamp;temperature;humidity
3778;DHT22;1904;50.076;8.660;2022-09-27T00:01:46;11.20;6.20
3778;DHT22;1904;50.076;8.660;2022-09-27T00:04:16;11.30;5.50
3778;DHT22;1904;50.076;8.660;2022-09-27T00:06:52;11.30;7.40
3778;DHT22;1904;50.076;8.660;2022-09-27T00:09:45;11.30;7.10
3778;DHT22;1904;50.076;8.660;2022-09-27T00:12:16;11.30;7.90
3778;DHT22;1904;50.076;8.660;2022-09-27T00:14:46;11.20;7.70
3778;DHT22;1904;50.076;8.660;2022-09-27T00:17:21;11.20;9.70
3778;DHT22;1904;50.076;8.660;2022-09-27T00:20:15;11.30;13.60
3778;DHT22;1904;50.076;8.660;2022-09-27T00:22:47;11.30;7.80
3778;DHT22;1904;50.076;8.660;2022-09-27T00:25:16;11.30;6.50
3778;DHT22;1904;50.076;8.660;2022-09-27T00:27:58;11.30;7.80
3778;DHT22;1904;50.076;8.660;2022-09-27T00:30:28;11.40;5.10
3778;DHT22;1904;50.076;8.660;2022-09-27T00:33:15;11.50;3.40
3778;DHT22;1904;50.076;8.660;2022-09-27T00:35:52;11.40;1.00
3778;DHT22;1904;50.076;8.660;2022-09-27T00:38:51;11.50;1.00
3778;DHT22;1904;50.076;8.660;2022-09-27T00:41:45;11.40;1.90
3778;DHT22;1904;50.076;8.660;2022-09-27T00:47:29;11.40;2.60
3778;DHT22;1904;50.076;8.660;2022-09-27T00:53:23;11.50;5.10
3778;DHT22;1904;50.076;8.660;2022-09-27T00:56:13;11.50;1.00
3778;DHT22;1904;50.076;8.660;2022-09-27T00:58:45;11.50;2.50
3778;DHT22;1904;50.076;8.660;2022-09-27T01:01:12;11.50;1.70
3778;DHT22;1904;50.076;8.660;2022-09-27T01:03:53;11.60;1.40
3778;DHT22;1904;50.076;8.660;2022-09-27T01:06:28;11.50;1.00
3778;DHT22;1904;50.076;8.660;2022-09-27T01:09:11;11.60;1.00
3778;DHT22;1904;50.076;8.660;2022-09-27T01:18:31;11.50;2.80
3778;DHT22;1904;50.076;8.660;2022-09-27T01:39:15;11.50;6.20
3778;DHT22;1904;50.076;8.660;2022-09-27T01:45:29;11.30;10.50
3778;DHT22;1904;50.076;8.660;2022-09-27T01:54:49;11.40;4.80
3778;DHT22;1904;50.076;8.660;2022-09-27T01:57:54;11.40;7.70
3778;DHT22;1904;50.076;8.660;2022-09-27T02:00:46;11.30;11.80
3778;DHT22;1904;50.076;8.660;2022-09-27T02:06:40;11.30;9.90
3778;DHT22;1904;50.076;8.660;2022-09-27T02:12:21;11.30;16.40
3778;DHT22;1904;50.076;8.660;2022-09-27T02:14:57;11.30;17.00
3778;DHT22;1904;50.076;8.660;2022-09-27T02:17:50;11.30;16.20
3778;DHT22;1904;50.076;8.660;2022-09-27T02:20:48;11.20;15.80
3778;DHT22;1904;50.076;8.660;2022-09-27T02:25:59;11.30;17.60
3778;DHT22;1904;50.076;8.660;2022-09-27T02:34:13;11.20;16.70
3778;DHT22;1904;50.076;8.660;2022-09-27T02:36:57;11.20;17.70
3778;DHT22;1904;50.076;8.660;2022-09-27T02:43:16;11.20;20.80
3778;DHT22;1904;50.076;8.660;2022-09-27T02:52:38;11.20;18.80
3778;DHT22;1904;50.076;8.660;2022-09-27T02:55:17;11.20;17.70
3778;DHT22;1904;50.076;8.660;2022-09-27T02:58:15;11.20;18.10
3778;DHT22;1904;50.076;8.660;2022-09-27T03:01:12;11.20;14.30
3778;DHT22;1904;50.076;8.660;2022-09-27T03:04:13;11.20;15.50
3778;DHT22;1904;50.076;8.660;2022-09-27T03:06:58;11.20;16.70
3778;DHT22;1904;50.076;8.660;2022-09-27T03:09:46;11.20;19.20
3778;DHT22;1904;50.076;8.660;2022-09-27T03:15:40;11.20;17.00
3778;DHT22;1904;50.076;8.660;2022-09-27T03:18:16;11.20;18.30
3778;DHT22;1904;50.076;8.660;2022-09-27T03:21:03;11.20;16.30
3778;DHT22;1904;50.076;8.660;2022-09-27T03:23:29;11.30;16.40
3778;DHT22;1904;50.076;8.660;2022-09-27T03:25:58;11.30;18.80
3778;DHT22;1904;50.076;8.660;2022-09-27T03:28:28;11.30;15.00
3778;DHT22;1904;50.076;8.660;2022-09-27T03:30:58;11.20;17.90
3778;DHT22;1904;50.076;8.660;2022-09-27T03:33:28;11.20;14.50
3778;DHT22;1904;50.076;8.660;2022-09-27T03:36:04;11.30;13.50
3778;DHT22;1904;50.076;8.660;2022-09-27T03:38:40;11.20;6.80
3778;DHT22;1904;50.076;8.660;2022-09-27T03:41:16;11.20;6.70
3778;DHT22;1904;50.076;8.660;2022-09-27T03:43:42;11.10;4.60
3778;DHT22;1904;50.076;8.660;2022-09-27T03:46:34;11.20;1.00
3778;DHT22;1904;50.076;8.660;2022-09-27T03:48:59;11.10;1.00
3778;DHT22;1904;50.076;8.660;2022-09-27T03:54:47;11.00;1.00
3778;DHT22;1904;50.076;8.660;2022-09-27T03:57:13;11.00;1.00
3778;DHT22;1904;50.076;8.660;2022-09-27T04:00:04;10.90;1.00
3778;DHT22;1904;50.076;8.660;2022-09-27T04:02:46;11.00;1.00
3778;DHT22;1904;50.076;8.660;2022-09-27T04:05:26;11.00;1.00
3778;DHT22;1904;50.076;8.660;2022-09-27T04:07:58;10.90;1.00
3778;DHT22;1904;50.076;8.660;2022-09-27T04:13:42;10.80;1.00
3778;DHT22;1904;50.076;8.660;2022-09-27T04:16:09;10.80;1.00
3778;DHT22;1904;50.076;8.660;2022-09-27T04:18:46;10.80;1.00
3778;DHT22;1904;50.076;8.660;2022-09-27T04:21:39;10.70;1.00
3778;DHT22;1904;50.076;8.660;2022-09-27T04:24:05;10.70;1.00
3778;DHT22;1904;50.076;8.660;2022-09-27T04:26:46;10.70;1.00
3778;DHT22;1904;50.076;8.660;2022-09-27T04:29:16;10.70;1.00
3778;DHT22;1904;50.076;8.660;2022-09-27T04:31:42;10.70;1.00
3778;DHT22;1904;50.076;8.660;2022-09-27T04:34:16;10.60;1.00
3778;DHT22;1904;50.076;8.660;2022-09-27T04:36:42;10.50;1.00
3778;DHT22;1904;50.076;8.660;2022-09-27T04:39:10;10.60;1.00
3778;DHT22;1904;50.076;8.660;2022-09-27T04:41:52;10.50;1.00
3778;DHT22;1904;50.076;8.660;2022-09-27T04:44:19;10.50;1.00
3778;DHT22;1904;50.076;8.660;2022-09-27T04:47:04;10.50;1.00
3778;DHT22;1904;50.076;8.660;2022-09-27T04:49:46;10.40;1.00
3778;DHT22;1904;50.076;8.660;2022-09-27T04:52:40;10.40;1.00
3778;DHT22;1904;50.076;8.660;2022-09-27T04:55:09;10.40;1.00
3778;DHT22;1904;50.076;8.660;2022-09-27T04:57:35;10.50;1.00
3778;DHT22;1904;50.076;8.660;2022-09-27T05:00:03;10.50;1.00
3778;DHT22;1904;50.076;8.660;2022-09-27T05:02:58;10.50;1.00
3778;DHT22;1904;50.076;8.660;2022-09-27T05:05:24;10.50;1.00
3778;DHT22;1904;50.076;8.660;2022-09-27T05:07:50;10.50;1.00
3778;DHT22;1904;50.076;8.660;2022-09-27T05:10:16;10.50;1.00
3778;DHT22;1904;50.076;8.660;2022-09-27T05:12:46;10.40;1.00
3778;DHT22;1904;50.076;8.660;2022-09-27T05:15:34;10.50;1.00
3778;DHT22;1904;50.076;8.660;2022-09-27T05:18:05;10.50;1.00
3778;DHT22;1904;50.076;8.660;2022-09-27T05:20:35;10.50;1.00
3778;DHT22;1904;50.076;8.660;2022-09-27T05:23:02;10.40;1.00
3778;DHT22;1904;50.076;8.660;2022-09-27T05:25:30;10.40;1.00
3778;DHT22;1904;50.076;8.660;2022-09-27T05:27:57;10.40;1.00
3778;DHT22;1904;50.076;8.660;2022-09-27T05:30:34;10.50;1.00
3778;DHT22;1904;50.076;8.660;2022-09-27T05:33:01;10.40;1.00
3778;DHT22;1904;50.076;8.660;2022-09-27T05:35:34;10.30;1.00
3778;DHT22;1904;50.076;8.660;2022-09-27T05:38:00;10.30;1.00
3778;DHT22;1904;50.076;8.660;2022-09-27T05:40:27;10.30;1.00
3778;DHT22;1904;50.076;8.660;2022-09-27T05:42:54;10.30;1.00
3778;DHT22;1904;50.076;8.660;2022-09-27T05:45:22;10.40;1.00
3778;DHT22;1904;50.076;8.660;2022-09-27T05:47:55;10.30;1.00
3778;DHT22;1904;50.076;8.660;2022-09-27T05:50:24;10.50;1.00
3778;DHT22;1904;50.076;8.660;2022-09-27T05:52:50;10.50;1.00
3778;DHT22;1904;50.076;8.660;2022-09-27T05:55:16;10.60;1.00
3778;DHT22;1904;50.076;8.660;2022-09-27T05:58:03;10.60;1.00
3778;DHT22;1904;50.076;8.660;2022-09-27T06:00:41;10.60;1.00
3778;DHT22;1904;50.076;8.660;2022-09-27T06:03:11;10.60;1.00
3778;DHT22;1904;50.076;8.660;2022-09-27T06:05:40;10.60;1.00
3778;DHT22;1904;50.076;8.660;2022-09-27T06:08:09;10.70;1.00
3778;DHT22;1904;50.076;8.660;2022-09-27T06:10:35;10.70;1.00
3778;DHT22;1904;50.076;8.660;2022-09-27T06:13:04;10.80;1.00
3778;DHT22;1904;50.076;8.660;2022-09-27T06:15:31;10.80;1.00
3778;DHT22;1904;50.076;8.660;2022-09-27T06:18:03;10.80;1.00
3778;DHT22;1904;50.076;8.660;2022-09-27T06:20:41;10.90;1.00
3778;DHT22;1904;50.076;8.660;2022-09-27T06:23:12;11.00;1.00
3778;DHT22;1904;50.076;8.660;2022-09-27T06:25:39;11.00;1.00
3778;DHT22;1904;50.076;8.660;2022-09-27T06:28:05;11.10;1.00
3778;DHT22;1904;50.076;8.660;2022-09-27T06:30:31;11.20;1.00
3778;DHT22;1904;50.076;8.660;2022-09-27T06:33:00;11.20;1.00
3778;DHT22;1904;50.076;8.660;2022-09-27T06:35:35;11.20;1.00
3778;DHT22;1904;50.076;8.660;2022-09-27T06:38:05;11.30;1.00
3778;DHT22;1904;50.076;8.660;2022-09-27T06:40:52;11.20;1.00
3778;DHT22;1904;50.076;8.660;2022-09-27T06:43:19;11.20;1.00
3778;DHT22;1904;50.076;8.660;2022-09-27T06:45:52;11.30;1.00
3778;DHT22;1904;50.076;8.660;2022-09-27T06:48:28;11.40;1.00
3778;DHT22;1904;50.076;8.660;2022-09-27T06:50:54;11.30;1.00
3778;DHT22;1904;50.076;8.660;2022-09-27T06:53:23;11.40;1.00
3778;DHT22;1904;50.076;8.660;2022-09-27T06:55:52;11.50;1.00
3778;DHT22;1904;50.076;8.660;2022-09-27T06:58:22;11.60;1.00
3778;DHT22;1904;50.076;8.660;2022-09-27T07:01:14;11.40;1.00
3778;DHT22;1904;50.076;8.660;2022-09-27T07:03:50;11.50;1.00
3778;DHT22;1904;50.076;8.660;2022-09-27T07:06:19;11.60;1.00
3778;DHT22;1904;50.076;8.660;2022-09-27T07:08:53;11.70;1.00
3778;DHT22;1904;50.076;8.660;2022-09-27T07:11:19;11.80;1.00
3778;DHT22;1904;50.076;8.660;2022-09-27T07:13:46;11.80;1.00
3778;DHT22;1904;50.076;8.660;2022-09-27T07:16:16;11.90;1.00
3778;DHT22;1904;50.076;8.660;2022-09-27T07:18:42;11.90;1.00
3778;DHT22;1904;50.076;8.660;2022-09-27T07:21:08;11.90;1.00
3778;DHT22;1904;50.076;8.660;2022-09-27T07:23:35;11.80;1.00
3778;DHT22;1904;50.076;8.660;2022-09-27T07:26:06;11.90;1.00
3778;DHT22;1904;50.076;8.660;2022-09-27T07:28:33;12.10;1.00
3778;DHT22;1904;50.076;8.660;2022-09-27T07:31:00;12.00;1.00
3778;DHT22;1904;50.076;8.660;2022-09-27T07:33:35;12.00;1.00
3778;DHT22;1904;50.076;8.660;2022-09-27T07:36:12;12.10;1.00
3778;DHT22;1904;50.076;8.660;2022-09-27T07:38:41;12.10;1.00
3778;DHT22;1904;50.076;8.660;2022-09-27T07:44:11;11.90;1.00
3778;DHT22;1904;50.076;8.660;2022-09-27T07:46:39;12.00;1.00
3778;DHT22;1904;50.076;8.660;2022-09-27T07:49:04;12.20;1.00
3778;DHT22;1904;50.076;8.660;2022-09-27T07:51:31;12.20;1.00
3778;DHT22;1904;50.076;8.660;2022-09-27T07:53:56;12.30;1.00
3778;DHT22;1904;50.076;8.660;2022-09-27T07:56:22;12.30;1.00
3778;DHT22;1904;50.076;8.660;2022-09-27T07:58:47;12.40;1.00
3778;DHT22;1904;50.076;8.660;2022-09-27T08:01:16;12.50;1.00
3778;DHT22;1904;50.076;8.660;2022-09-27T08:03:46;12.60;1.00
3778;DHT22;1904;50.076;8.660;2022-09-27T08:06:12;12.60;1.00
3778;DHT22;1904;50.076;8.660;2022-09-27T08:08:38;12.60;1.00
3778;DHT22;1904;50.076;8.660;2022-09-27T08:11:15;12.50;1.00
3778;DHT22;1904;50.076;8.660;2022-09-27T08:13:42;12.50;1.00
3778;DHT22;1904;50.076;8.660;2022-09-27T08:16:08;12.50;1.00
3778;DHT22;1904;50.076;8.660;2022-09-27T08:18:36;12.80;1.00
3778;DHT22;1904;50.076;8.660;2022-09-27T08:27:53;13.30;1.00
3778;DHT22;1904;50.076;8.660;2022-09-27T08:30:23;13.40;1.00
3778;DHT22;1904;50.076;8.660;2022-09-27T08:33:07;13.30;1.00
3778;DHT22;1904;50.076;8.660;2022-09-27T08:38:58;13.50;1.00
3778;DHT22;1904;50.076;8.660;2022-09-27T08:44:37;13.50;1.00
3778;DHT22;1904;50.076;8.660;2022-09-27T08:47:26;13.70;1.00
3778;DHT22;1904;50.076;8.660;2022-09-27T08:55:59;14.00;1.00
3778;DHT22;1904;50.076;8.660;2022-09-27T09:02:12;14.30;1.00
3778;DHT22;1904;50.076;8.660;2022-09-27T09:05:02;14.00;1.00
3778;DHT22;1904;50.076;8.660;2022-09-27T09:17:47;14.80;1.00
3778;DHT22;1904;50.076;8.660;2022-09-27T09:20:49;15.10;1.00
3778;DHT22;1904;50.076;8.660;2022-09-27T09:31:55;15.30;1.00
3778;DHT22;1904;50.076;8.660;2022-09-27T09:34:38;15.10;1.00
3778;DHT22;1904;50.076;8.660;2022-09-27T09:40:41;15.00;1.00
3778;DHT22;1904;50.076;8.660;2022-09-27T09:44:01;15.30;1.00
3778;DHT22;1904;50.076;8.660;2022-09-27T09:46:56;15.40;1.00
3778;DHT22;1904;50.076;8.660;2022-09-27T09:49:39;15.40;1.00
3778;DHT22;1904;50.076;8.660;2022-09-27T09:52:15;15.20;1.00
3778;DHT22;1904;50.076;8.660;2022-09-27T09:54:51;15.00;1.00
3778;DHT22;1904;50.076;8.660;2022-09-27T09:57:35;15.00;1.00
3778;DHT22;1904;50.076;8.660;2022-09-27T10:00:12;15.30;1.00
3778;DHT22;1904;50.076;8.660;2022-09-27T10:02:45;15.10;1.00
3778;DHT22;1904;50.076;8.660;2022-09-27T10:05:21;15.10;1.00
3778;DHT22;1904;50.076;8.660;2022-09-27T10:07:59;14.90;1.00
3778;DHT22;1904;50.076;8.660;2022-09-27T10:10:29;14.80;1.00
3778;DHT22;1904;50.076;8.660;2022-09-27T10:13:02;14.90;1.00
3778;DHT22;1904;50.076;8.660;2022-09-27T10:15:29;15.00;1.00
3778;DHT22;1904;50.076;8.660;2022-09-27T10:17:59;15.20;1.00
3778;DHT22;1904;50.076;8.660;2022-09-27T10:20:38;15.40;1.00
3778;DHT22;1904;50.076;8.660;2022-09-27T10:23:16;15.50;1.00
3778;DHT22;1904;50.076;8.660;2022-09-27T10:26:01;15.80;1.00
3778;DHT22;1904;50.076;8.660;2022-09-27T10:31:16;16.30;1.00
3778;DHT22;1904;50.076;8.660;2022-09-27T10:33:58;16.70;1.00
3778;DHT22;1904;50.076;8.660;2022-09-27T10:36:33;16.70;1.00
3778;DHT22;1904;50.076;8.660;2022-09-27T10:39:21;16.80;1.00
3778;DHT22;1904;50.076;8.660;2022-09-27T10:41:48;16.80;1.00
3778;DHT22;1904;50.076;8.660;2022-09-27T10:44:23;16.90;1.00
3778;DHT22;1904;50.076;8.660;2022-09-27T10:47:12;16.70;1.00
3778;DHT22;1904;50.076;8.660;2022-09-27T10:49:40;16.30;1.00
3778;DHT22;1904;50.076;8.660;2022-09-27T10:52:34;16.20;1.00
3778;DHT22;1904;50.076;8.660;2022-09-27T10:55:23;16.00;1.00
3778;DHT22;1904;50.076;8.660;2022-09-27T10:57:52;15.60;1.00
3778;DHT22;1904;50.076;8.660;2022-09-27T11:00:20;15.40;1.00
3778;DHT22;1904;50.076;8.660;2022-09-27T11:02:53;15.50;1.00
3778;DHT22;1904;50.076;8.660;2022-09-27T11:08:02;15.50;1.00
3778;DHT22;1904;50.076;8.660;2022-09-27T11:10:30;15.80;1.00
3778;DHT22;1904;50.076;8.660;2022-09-27T11:13:17;16.00;1.00
3778;DHT22;1904;50.076;8.660;2022-09-27T11:28:11;15.10;1.00
3778;DHT22;1904;50.076;8.660;2022-09-27T11:37:05;15.70;1.00
3778;DHT22;1904;50.076;8.660;2022-09-27T11:42:44;15.20;1.00
3778;DHT22;1904;50.076;8.660;2022-09-27T11:48:18;15.40;1.00
3778;DHT22;1904;50.076;8.660;2022-09-27T11:51:11;15.60;1.00
3778;DHT22;1904;50.076;8.660;2022-09-27T11:53:46;15.70;1.00
3778;DHT22;1904;50.076;8.660;2022-09-27T11:56:39;15.70;1.00
3778;DHT22;1904;50.076;8.660;2022-09-27T12:01:53;15.50;1.00
3778;DHT22;1904;50.076;8.660;2022-09-27T12:10:00;15.60;1.00
3778;DHT22;1904;50.076;8.660;2022-09-27T12:12:31;15.30;1.00
3778;DHT22;1904;50.076;8.660;2022-09-27T12:15:02;15.40;1.00
3778;DHT22;1904;50.076;8.660;2022-09-27T12:17:32;15.40;1.00
3778;DHT22;1904;50.076;8.660;2022-09-27T12:20:04;15.30;1.00
3778;DHT22;1904;50.076;8.660;2022-09-27T12:22:39;15.40;1.00
3778;DHT22;1904;50.076;8.660;2022-09-27T12:25:06;15.20;1.00
3778;DHT22;1904;50.076;8.660;2022-09-27T12:27:42;15.00;1.00
3778;DHT22;1904;50.076;8.660;2022-09-27T12:30:12;14.80;1.00
3778;DHT22;1904;50.076;8.660;2022-09-27T12:33:05;14.70;1.00
3778;DHT22;1904;50.076;8.660;2022-09-27T12:35:39;14.80;1.00
3778;DHT22;1904;50.076;8.660;2022-09-27T12:38:34;14.90;1.00
3778;DHT22;1904;50.076;8.660;2022-09-27T12:41:04;15.20;1.00
3778;DHT22;1904;50.076;8.660;2022-09-27T12:43:32;15.30;1.00
3778;DHT22;1904;50.076;8.660;2022-09-27T12:51:48;15.30;1.00
3778;DHT22;1904;50.076;8.660;2022-09-27T12:54:37;15.50;1.00
3778;DHT22;1904;50.076;8.660;2022-09-27T13:00:11;15.60;1.00
3778;DHT22;1904;50.076;8.660;2022-09-27T13:13:48;15.90;1.00
3778;DHT22;1904;50.076;8.660;2022-09-27T13:16:14;15.90;1.00
3778;DHT22;1904;50.076;8.660;2022-09-27T13:18:58;15.60;1.00
3778;DHT22;1904;50.076;8.660;2022-09-27T13:21:53;15.50;1.00
3778;DHT22;1904;50.076;8.660;2022-09-27T13:29:49;15.20;1.00
3778;DHT22;1904;50.076;8.660;2022-09-27T13:32:21;15.20;1.00
3778;DHT22;1904;50.076;8.660;2022-09-27T13:34:54;15.00;1.00
3778;DHT22;1904;50.076;8.660;2022-09-27T13:37:55;15.10;1.00
3778;DHT22;1904;50.076;8.660;2022-09-27T13:40:24;15.00;1.00
3778;DHT22;1904;50.076;8.660;2022-09-27T13:51:35;15.00;1.00
3778;DHT22;1904;50.076;8.660;2022-09-27T13:54:07;15.10;1.00
3778;DHT22;1904;50.076;8.660;2022-09-27T13:56:53;14.90;1.00
3778;DHT22;1904;50.076;8.660;2022-09-27T13:59:38;14.60;1.00
3778;DHT22;1904;50.076;8.660;2022-09-27T14:04:40;14.60;1.00
3778;DHT22;1904;50.076;8.660;2022-09-27T14:07:13;14.80;1.00
3778;DHT22;1904;50.076;8.660;2022-09-27T14:09:44;14.90;1.00
3778;DHT22;1904;50.076;8.660;2022-09-27T14:12:23;14.80;1.00
3778;DHT22;1904;50.076;8.660;2022-09-27T14:15:00;14.90;1.00
3778;DHT22;1904;50.076;8.660;2022-09-27T14:17:27;15.10;1.00
3778;DHT22;1904;50.076;8.660;2022-09-27T14:19:53;15.10;1.00
3778;DHT22;1904;50.076;8.660;2022-09-27T14:22:24;15.20;1.00
3778;DHT22;1904;50.076;8.660;2022-09-27T14:24:54;15.40;1.00
3778;DHT22;1904;50.076;8.660;2022-09-27T14:27:34;15.70;1.00
3778;DHT22;1904;50.076;8.660;2022-09-27T14:30:14;16.00;1.00
3778;DHT22;1904;50.076;8.660;2022-09-27T14:32:50;16.20;1.00
3778;DHT22;1904;50.076;8.660;2022-09-27T14:35:19;16.20;1.00
3778;DHT22;1904;50.076;8.660;2022-09-27T14:38:06;16.10;1.00
3778;DHT22;1904;50.076;8.660;2022-09-27T14:41:07;16.00;1.00
3778;DHT22;1904;50.076;8.660;2022-09-27T14:43:41;16.10;1.00
3778;DHT22;1904;50.076;8.660;2022-09-27T14:46:30;15.90;1.00
3778;DHT22;1904;50.076;8.660;2022-09-27T14:48:56;16.00;1.00
3778;DHT22;1904;50.076;8.660;2022-09-27T14:55:15;15.80;1.00
3778;DHT22;1904;50.076;8.660;2022-09-27T14:58:05;15.60;1.00
3778;DHT22;1904;50.076;8.660;2022-09-27T15:00:59;15.70;1.00
3778;DHT22;1904;50.076;8.660;2022-09-27T15:03:30;15.50;1.00
3778;DHT22;1904;50.076;8.660;2022-09-27T15:06:11;15.50;1.00
3778;DHT22;1904;50.076;8.660;2022-09-27T15:08:38;15.50;1.00
3778;DHT22;1904;50.076;8.660;2022-09-27T15:11:23;15.40;1.00
3778;DHT22;1904;50.076;8.660;2022-09-27T15:14:00;15.20;1.00
3778;DHT22;1904;50.076;8.660;2022-09-27T15:16:41;15.10;1.00
3778;DHT22;1904;50.076;8.660;2022-09-27T15:19:28;14.90;1.00
3778;DHT22;1904;50.076;8.660;2022-09-27T15:21:54;14.80;1.00
3778;DHT22;1904;50.076;8.660;2022-09-27T15:24:47;14.70;1.00
3778;DHT22;1904;50.076;8.660;2022-09-27T15:27:20;14.20;1.00
3778;DHT22;1904;50.076;8.660;2022-09-27T15:30:18;13.80;1.00
3778;DHT22;1904;50.076;8.660;2022-09-27T15:33:06;13.60;1.00
3778;DHT22;1904;50.076;8.660;2022-09-27T15:35:34;13.00;1.00
3778;DHT22;1904;50.076;8.660;2022-09-27T15:38:37;12.50;1.00
3778;DHT22;1904;50.076;8.660;2022-09-27T15:41:10;12.10;1.00
3778;DHT22;1904;50.076;8.660;2022-09-27T15:43:45;12.00;1.00
3778;DHT22;1904;50.076;8.660;2022-09-27T15:49:18;11.80;1.00
3778;DHT22;1904;50.076;8.660;2022-09-27T15:51:47;11.80;1.00
3778;DHT22;1904;50.076;8.660;2022-09-27T15:54:24;11.90;1.00
3778;DHT22;1904;50.076;8.660;2022-09-27T15:56:53;12.00;1.00
3778;DHT22;1904;50.076;8.660;2022-09-27T15:59:26;12.10;1.00
3778;DHT22;1904;50.076;8.660;2022-09-27T16:02:02;12.10;1.00
3778;DHT22;1904;50.076;8.660;2022-09-27T16:04:41;12.20;1.00
3778;DHT22;1904;50.076;8.660;2022-09-27T16:07:23;12.30;1.00
3778;DHT22;1904;50.076;8.660;2022-09-27T16:09:59;12.30;1.00
3778;DHT22;1904;50.076;8.660;2022-09-27T16:12:29;12.30;1.00
3778;DHT22;1904;50.076;8.660;2022-09-27T16:15:29;12.20;1.00
3778;DHT22;1904;50.076;8.660;2022-09-27T16:21:41;12.00;1.00
3778;DHT22;1904;50.076;8.660;2022-09-27T16:24:11;11.90;1.00
3778;DHT22;1904;50.076;8.660;2022-09-27T16:30:29;11.80;1.00
3778;DHT22;1904;50.076;8.660;2022-09-27T16:33:11;11.80;1.00
3778;DHT22;1904;50.076;8.660;2022-09-27T16:36:11;11.70;1.00
3778;DHT22;1904;50.076;8.660;2022-09-27T16:38:41;11.80;1.00
3778;DHT22;1904;50.076;8.660;2022-09-27T16:41:07;11.80;1.00
3778;DHT22;1904;50.076;8.660;2022-09-27T16:43:33;11.80;1.00
3778;DHT22;1904;50.076;8.660;2022-09-27T16:46:07;11.70;1.00
3778;DHT22;1904;50.076;8.660;2022-09-27T16:49:11;11.80;1.00
3778;DHT22;1904;50.076;8.660;2022-09-27T16:52:17;11.80;1.00
3778;DHT22;1904;50.076;8.660;2022-09-27T16:58:23;11.80;1.00
3778;DHT22;1904;50.076;8.660;2022-09-27T17:00:59;11.80;1.00
3778;DHT22;1904;50.076;8.660;2022-09-27T17:03:35;11.70;1.00
3778;DHT22;1904;50.076;8.660;2022-09-27T17:06:02;11.80;1.00
3778;DHT22;1904;50.076;8.660;2022-09-27T17:08:41;11.60;1.00
3778;DHT22;1904;50.076;8.660;2022-09-27T17:11:15;11.60;1.00
3778;DHT22;1904;50.076;8.660;2022-09-27T17:13:42;11.40;1.00
3778;DHT22;1904;50.076;8.660;2022-09-27T17:16:11;11.30;1.00
3778;DHT22;1904;50.076;8.660;2022-09-27T17:18:41;11.30;1.00
3778;DHT22;1904;50.076;8.660;2022-09-27T17:21:11;11.30;1.00
3778;DHT22;1904;50.076;8.660;2022-09-27T17:23:41;11.40;1.00
3778;DHT22;1904;50.076;8.660;2022-09-27T17:28:41;11.30;1.00
3778;DHT22;1904;50.076;8.660;2022-09-27T17:31:13;11.30;1.00
3778;DHT22;1904;50.076;8.660;2022-09-27T17:33:44;11.40;1.00
3778;DHT22;1904;50.076;8.660;2022-09-27T17:36:20;11.40;1.00
3778;DHT22;1904;50.076;8.660;2022-09-27T17:38:53;11.40;1.00
3778;DHT22;1904;50.076;8.660;2022-09-27T17:41:23;11.40;1.00
3778;DHT22;1904;50.076;8.660;2022-09-27T17:43:53;11.30;1.00
3778;DHT22;1904;50.076;8.660;2022-09-27T17:46:47;11.30;1.00
3778;DHT22;1904;50.076;8.660;2022-09-27T17:49:35;11.30;1.00
3778;DHT22;1904;50.076;8.660;2022-09-27T17:52:20;11.20;1.00
3778;DHT22;1904;50.076;8.660;2022-09-27T17:54:47;11.20;1.00
3778;DHT22;1904;50.076;8.660;2022-09-27T17:57:17;11.20;1.00
3778;DHT22;1904;50.076;8.660;2022-09-27T18:00:11;11.20;1.00
3778;DHT22;1904;50.076;8.660;2022-09-27T18:02:41;11.20;1.00
3778;DHT22;1904;50.076;8.660;2022-09-27T18:05:35;11.20;1.00
3778;DHT22;1904;50.076;8.660;2022-09-27T18:08:05;11.10;1.00
3778;DHT22;1904;50.076;8.660;2022-09-27T18:14:23;11.00;1.00
3778;DHT22;1904;50.076;8.660;2022-09-27T18:20:12;10.80;1.00
3778;DHT22;1904;50.076;8.660;2022-09-27T18:22:38;10.80;1.00
3778;DHT22;1904;50.076;8.660;2022-09-27T18:25:17;10.70;1.00
3778;DHT22;1904;50.076;8.660;2022-09-27T18:27:43;10.60;1.00
3778;DHT22;1904;50.076;8.660;2022-09-27T18:30:17;10.70;1.00
3778;DHT22;1904;50.076;8.660;2022-09-27T18:32:43;10.60;1.00
3778;DHT22;1904;50.076;8.660;2022-09-27T18:35:41;10.60;1.00
3778;DHT22;1904;50.076;8.660;2022-09-27T18:38:35;10.60;1.00
3778;DHT22;1904;50.076;8.660;2022-09-27T18:41:10;10.60;1.00
3778;DHT22;1904;50.076;8.660;2022-09-27T18:43:37;10.50;1.00
3778;DHT22;1904;50.076;8.660;2022-09-27T18:46:14;10.40;1.00
3778;DHT22;1904;50.076;8.660;2022-09-27T18:52:02;10.30;1.00
3778;DHT22;1904;50.076;8.660;2022-09-27T18:54:35;10.30;1.00
3778;DHT22;1904;50.076;8.660;2022-09-27T19:00:24;10.20;1.00
3778;DHT22;1904;50.076;8.660;2022-09-27T19:03:12;10.20;1.00
3778;DHT22;1904;50.076;8.660;2022-09-27T19:15:53;9.80;1.00
3778;DHT22;1904;50.076;8.660;2022-09-27T19:18:41;9.80;1.00
3778;DHT22;1904;50.076;8.660;2022-09-27T19:21:12;9.80;1.00
3778;DHT22;1904;50.076;8.660;2022-09-27T19:23:41;9.70;1.00
3778;DHT22;1904;50.076;8.660;2022-09-27T19:26:14;9.80;1.00
3778;DHT22;1904;50.076;8.660;2022-09-27T19:28:42;9.70;1.00
3778;DHT22;1904;50.076;8.660;2022-09-27T19:31:13;9.60;1.00
3778;DHT22;1904;50.076;8.660;2022-09-27T19:33:51;9.50;1.00
3778;DHT22;1904;50.076;8.660;2022-09-27T19:39:39;9.50;1.00
3778;DHT22;1904;50.076;8.660;2022-09-27T19:48:35;9.40;1.00
3778;DHT22;1904;50.076;8.660;2022-09-27T19:51:20;9.30;1.00
3778;DHT22;1904;50.076;8.660;2022-09-27T19:53:46;9.30;1.00
3778;DHT22;1904;50.076;8.660;2022-09-27T19:56:18;9.30;1.00
3778;DHT22;1904;50.076;8.660;2022-09-27T19:58:43;9.40;1.00
3778;DHT22;1904;50.076;8.660;2022-09-27T20:01:20;9.40;1.00
3778;DHT22;1904;50.076;8.660;2022-09-27T20:04:05;9.50;1.00
3778;DHT22;1904;50.076;8.660;2022-09-27T20:06:41;9.50;1.00
3778;DHT22;1904;50.076;8.660;2022-09-27T20:09:07;9.50;1.00
3778;DHT22;1904;50.076;8.660;2022-09-27T20:11:35;9.50;1.00
3778;DHT22;1904;50.076;8.660;2022-09-27T20:14:11;9.50;1.00
3778;DHT22;1904;50.076;8.660;2022-09-27T20:16:47;9.50;1.00
3778;DHT22;1904;50.076;8.660;2022-09-27T20:19:29;9.50;1.00
3778;DHT22;1904;50.076;8.660;2022-09-27T20:22:05;9.50;1.00
3778;DHT22;1904;50.076;8.660;2022-09-27T20:24:31;9.50;1.00
3778;DHT22;1904;50.076;8.660;2022-09-27T20:27:11;9.40;1.00
3778;DHT22;1904;50.076;8.660;2022-09-27T20:30:05;9.40;1.00
3778;DHT22;1904;50.076;8.660;2022-09-27T20:32:31;9.40;1.00
3778;DHT22;1904;50.076;8.660;2022-09-27T20:34:59;9.40;1.00
3778;DHT22;1904;50.076;8.660;2022-09-27T20:37:29;9.30;1.00
3778;DHT22;1904;50.076;8.660;2022-09-27T20:39:55;9.30;1.00
3778;DHT22;1904;50.076;8.660;2022-09-27T20:42:41;9.30;1.00
3778;DHT22;1904;50.076;8.660;2022-09-27T20:45:17;9.20;1.00
3778;DHT22;1904;50.076;8.660;2022-09-27T20:47:53;9.20;1.00
3778;DHT22;1904;50.076;8.660;2022-09-27T20:50:47;9.10;1.00
3778;DHT22;1904;50.076;8.660;2022-09-27T20:53:17;9.10;1.00
3778;DHT22;1904;50.076;8.660;2022-09-27T20:55:47;9.00;1.00
3778;DHT22;1904;50.076;8.660;2022-09-27T20:58:24;8.90;1.00
3778;DHT22;1904;50.076;8.660;2022-09-27T21:00:53;8.90;1.00
3778;DHT22;1904;50.076;8.660;2022-09-27T21:03:29;8.80;1.00
3778;DHT22;1904;50.076;8.660;2022-09-27T21:06:06;8.80;1.00
3778;DHT22;1904;50.076;8.660;2022-09-27T21:08:42;8.70;1.00
3778;DHT22;1904;50.076;8.660;2022-09-27T21:11:10;8.70;1.00
3778;DHT22;1904;50.076;8.660;2022-09-27T21:13:48;8.70;1.00
3778;DHT22;1904;50.076;8.660;2022-09-27T21:16:35;8.70;1.00
3778;DHT22;1904;50.076;8.660;2022-09-27T21:19:05;8.60;1.00
3778;DHT22;1904;50.076;8.660;2022-09-27T21:21:35;8.50;1.00
3778;DHT22;1904;50.076;8.660;2022-09-27T21:24:23;8.50;1.00
3778;DHT22;1904;50.076;8.660;2022-09-27T21:26:49;8.50;1.00
3778;DHT22;1904;50.076;8.660;2022-09-27T21:29:17;8.40;1.00